sensor_id;sensor_type;location;lat;lon;timestamp;temperature;humidity
75517;DHT22;64097;52.548;13.406;2023-05-07T06:02:52;15.10;58.10
75517;DHT22;64097;52.548;13.406;2023-05-07T06:05:18;15.20;58.10
75517;DHT22;64097;52.548;13.406;2023-05-07T06:07:44;15.20;58.00
75517;DHT22;64097;52.548;13.406;2023-05-07T06:10:10;15.20;57.90
75517;DHT22;64097;52.548;13.406;2023-05-07T06:12:35;15.30;57.80
75517;DHT22;64097;52.548;13.406;2023-05-07T06:15:01;15.30;57.90
75517;DHT22;64097;52.548;13.406;2023-05-07T06:17:27;15.30;57.80
75517;DHT22;64097;52.548;13.406;2023-05-07T06:19:53;15.30;57.70
75517;DHT22;64097;52.548;13.406;2023-05-07T06:22:18;15.40;57.60
75517;DHT22;64097;52.548;13.406;2023-05-07T06:24:44;15.40;57.50
75517;DHT22;64097;52.548;13.406;2023-05-07T06:27:10;15.40;57.50
75517;DHT22;64097;52.548;13.406;2023-05-07T06:29:36;15.50;57.40
75517;DHT22;64097;52.548;13.406;2023-05-07T06:32:11;15.50;57.20
75517;DHT22;64097;52.548;13.406;2023-05-07T06:34:37;15.50;57.20
75517;DHT22;64097;52.548;13.406;2023-05-07T06:37:03;15.60;57.20
75517;DHT22;64097;52.548;13.406;2023-05-07T06:39:29;15.60;57.20
75517;DHT22;64097;52.548;13.406;2023-05-07T06:41:54;15.60;57.10
75517;DHT22;64097;52.548;13.406;2023-05-07T06:44:20;15.60;57.20
75517;DHT22;64097;52.548;13.406;2023-05-07T06:46:46;15.60;56.80
75517;DHT22;64097;52.548;13.406;2023-05-07T06:49:14;15.60;56.60
75517;DHT22;64097;52.548;13.406;2023-05-07T06:51:41;15.60;56.50
75517;DHT22;64097;52.548;13.406;2023-05-07T06:54:06;15.60;56.40
75517;DHT22;64097;52.548;13.406;2023-05-07T06:56:33;15.60;56.40
75517;DHT22;64097;52.548;13.406;2023-05-07T06:59:00;15.60;56.60
75517;DHT22;64097;52.548;13.406;2023-05-07T07:01:26;15.70;56.60
75517;DHT22;64097;52.548;13.406;2023-05-07T07:03:52;15.70;56.50
75517;DHT22;64097;52.548;13.406;2023-05-07T07:06:18;15.80;56.20
75517;DHT22;64097;52.548;13.406;2023-05-07T07:08:43;15.90;56.10
75517;DHT22;64097;52.548;13.406;2023-05-07T07:11:10;15.90;56.10
75517;DHT22;64097;52.548;13.406;2023-05-07T07:13:36;15.90;56.00
75517;DHT22;64097;52.548;13.406;2023-05-07T07:16:02;15.90;55.60
75517;DHT22;64097;52.548;13.406;2023-05-07T07:18:28;15.90;55.30
75517;DHT22;64097;52.548;13.406;2023-05-07T07:20:54;15.80;55.40
75517;DHT22;64097;52.548;13.406;2023-05-07T07:23:20;15.80;55.50
75517;DHT22;64097;52.548;13.406;2023-05-07T07:25:46;15.80;55.70
75517;DHT22;64097;52.548;13.406;2023-05-07T07:28:12;15.80;55.60
75517;DHT22;64097;52.548;13.406;2023-05-07T07:30:38;15.90;55.30
75517;DHT22;64097;52.548;13.406;2023-05-07T07:33:05;15.90;55.30
75517;DHT22;64097;52.548;13.406;2023-05-07T07:35:34;15.90;55.30
75517;DHT22;64097;52.548;13.406;2023-05-07T07:38:00;15.90;55.30
75517;DHT22;64097;52.548;13.406;2023-05-07T07:40:25;16.00;55.30
75517;DHT22;64097;52.548;13.406;2023-05-07T07:42:52;16.00;55.30
75517;DHT22;64097;52.548;13.406;2023-05-07T07:45:18;16.00;55.10
75517;DHT22;64097;52.548;13.406;2023-05-07T07:47:44;16.10;55.30
75517;DHT22;64097;52.548;13.406;2023-05-07T07:50:10;16.10;55.10
75517;DHT22;64097;52.548;13.406;2023-05-07T07:52:36;16.10;54.90
75517;DHT22;64097;52.548;13.406;2023-05-07T07:55:01;16.10;54.80
75517;DHT22;64097;52.548;13.406;2023-05-07T07:57:27;16.20;54.70
75517;DHT22;64097;52.548;13.406;2023-05-07T07:59:53;16.20;54.20
75517;DHT22;64097;52.548;13.406;2023-05-07T08:02:19;16.20;53.90
75517;DHT22;64097;52.548;13.406;2023-05-07T08:04:44;16.20;53.90
75517;DHT22;64097;52.548;13.406;2023-05-07T08:07:10;16.20;54.10
75517;DHT22;64097;52.548;13.406;2023-05-07T08:09:37;16.20;54.00
75517;DHT22;64097;52.548;13.406;2023-05-07T08:12:04;16.30;53.90
75517;DHT22;64097;52.548;13.406;2023-05-07T08:14:30;16.30;54.00
75517;DHT22;64097;52.548;13.406;2023-05-07T08:16:56;16.40;53.90
75517;DHT22;64097;52.548;13.406;2023-05-07T08:19:22;16.40;53.70
75517;DHT22;64097;52.548;13.406;2023-05-07T08:21:48;16.50;53.50
75517;DHT22;64097;52.548;13.406;2023-05-07T08:24:14;16.50;53.20
75517;DHT22;64097;52.548;13.406;2023-05-07T08:26:41;16.50;52.90
75517;DHT22;64097;52.548;13.406;2023-05-07T08:29:07;16.60;53.00
75517;DHT22;64097;52.548;13.406;2023-05-07T08:31:33;16.60;52.90
75517;DHT22;64097;52.548;13.406;2023-05-07T08:33:59;16.70;52.90
75517;DHT22;64097;52.548;13.406;2023-05-07T08:36:25;16.70;52.50
75517;DHT22;64097;52.548;13.406;2023-05-07T08:38:54;16.70;52.20
75517;DHT22;64097;52.548;13.406;2023-05-07T08:41:20;16.70;52.10
75517;DHT22;64097;52.548;13.406;2023-05-07T08:43:50;16.70;52.00
75517;DHT22;64097;52.548;13.406;2023-05-07T08:46:22;16.70;52.20
75517;DHT22;64097;52.548;13.406;2023-05-07T08:48:49;16.80;52.50
75517;DHT22;64097;52.548;13.406;2023-05-07T08:51:18;16.80;52.40
75517;DHT22;64097;52.548;13.406;2023-05-07T08:53:44;16.90;52.30
75517;DHT22;64097;52.548;13.406;2023-05-07T08:56:11;17.00;52.20
75517;DHT22;64097;52.548;13.406;2023-05-07T08:58:37;17.00;51.80
75517;DHT22;64097;52.548;13.406;2023-05-07T09:01:07;17.00;51.70
75517;DHT22;64097;52.548;13.406;2023-05-07T09:03:33;17.00;51.90
75517;DHT22;64097;52.548;13.406;2023-05-07T09:05:59;17.10;52.00
75517;DHT22;64097;52.548;13.406;2023-05-07T09:08:26;17.10;51.80
75517;DHT22;64097;52.548;13.406;2023-05-07T09:10:52;17.20;51.40
75517;DHT22;64097;52.548;13.406;2023-05-07T09:13:18;17.20;51.10
75517;DHT22;64097;52.548;13.406;2023-05-07T09:15:43;17.30;50.90
75517;DHT22;64097;52.548;13.406;2023-05-07T09:18:09;17.30;50.80
75517;DHT22;64097;52.548;13.406;2023-05-07T09:20:37;17.30;51.10
75517;DHT22;64097;52.548;13.406;2023-05-07T09:23:02;17.40;50.90
75517;DHT22;64097;52.548;13.406;2023-05-07T09:25:32;17.40;51.10
75517;DHT22;64097;52.548;13.406;2023-05-07T09:27:59;17.50;51.00
75517;DHT22;64097;52.548;13.406;2023-05-07T09:30:32;17.50;50.80
75517;DHT22;64097;52.548;13.406;2023-05-07T09:32:59;17.60;50.50
75517;DHT22;64097;52.548;13.406;2023-05-07T09:35:26;17.60;50.50
75517;DHT22;64097;52.548;13.406;2023-05-07T09:37:58;17.60;50.30
75517;DHT22;64097;52.548;13.406;2023-05-07T09:40:29;17.60;50.00
75517;DHT22;64097;52.548;13.406;2023-05-07T09:42:55;17.60;50.00
75517;DHT22;64097;52.548;13.406;2023-05-07T09:45:27;17.60;49.80
75517;DHT22;64097;52.548;13.406;2023-05-07T09:47:55;17.60;50.00
75517;DHT22;64097;52.548;13.406;2023-05-07T09:50:27;17.60;50.20
75517;DHT22;64097;52.548;13.406;2023-05-07T09:52:57;17.70;50.20
75517;DHT22;64097;52.548;13.406;2023-05-07T09:55:23;17.70;50.00
75517;DHT22;64097;52.548;13.406;2023-05-07T09:57:53;17.80;49.70
75517;DHT22;64097;52.548;13.406;2023-05-07T10:00:20;17.90;49.50
75517;DHT22;64097;52.548;13.406;2023-05-07T10:02:49;17.90;49.20
75517;DHT22;64097;52.548;13.406;2023-05-07T10:05:18;17.90;49.90
75517;DHT22;64097;52.548;13.406;2023-05-07T10:07:44;17.90;49.30
75517;DHT22;64097;52.548;13.406;2023-05-07T10:10:10;18.00;49.30
75517;DHT22;64097;52.548;13.406;2023-05-07T10:12:36;18.00;49.00
75517;DHT22;64097;52.548;13.406;2023-05-07T10:15:09;18.10;48.60
75517;DHT22;64097;52.548;13.406;2023-05-07T10:17:36;18.20;48.30
75517;DHT22;64097;52.548;13.406;2023-05-07T10:20:03;18.20;48.30
75517;DHT22;64097;52.548;13.406;2023-05-07T10:22:34;18.30;48.20
75517;DHT22;64097;52.548;13.406;2023-05-07T10:25:03;18.40;48.20
75517;DHT22;64097;52.548;13.406;2023-05-07T10:27:31;18.40;48.10
75517;DHT22;64097;52.548;13.406;2023-05-07T10:30:15;18.40;48.00
75517;DHT22;64097;52.548;13.406;2023-05-07T10:32:47;18.50;48.10
75517;DHT22;64097;52.548;13.406;2023-05-07T10:35:24;18.50;47.80
75517;DHT22;64097;52.548;13.406;2023-05-07T10:37:51;18.60;47.90
75517;DHT22;64097;52.548;13.406;2023-05-07T10:40:17;18.70;47.70
75517;DHT22;64097;52.548;13.406;2023-05-07T10:43:05;18.80;47.60
75517;DHT22;64097;52.548;13.406;2023-05-07T10:45:31;18.80;47.50
75517;DHT22;64097;52.548;13.406;2023-05-07T10:48:16;18.80;47.20
75517;DHT22;64097;52.548;13.406;2023-05-07T10:50:45;18.90;47.00
75517;DHT22;64097;52.548;13.406;2023-05-07T10:55:42;18.90;46.80
75517;DHT22;64097;52.548;13.406;2023-05-07T10:58:27;18.90;46.80
75517;DHT22;64097;52.548;13.406;2023-05-07T11:00:57;19.00;46.60
75517;DHT22;64097;52.548;13.406;2023-05-07T11:03:24;19.00;46.60
75517;DHT22;64097;52.548;13.406;2023-05-07T11:06:14;19.10;46.80
75517;DHT22;64097;52.548;13.406;2023-05-07T11:08:56;19.10;46.60
75517;DHT22;64097;52.548;13.406;2023-05-07T11:11:45;19.20;46.40
75517;DHT22;64097;52.548;13.406;2023-05-07T11:14:11;19.20;45.60
75517;DHT22;64097;52.548;13.406;2023-05-07T11:16:38;19.20;45.60
75517;DHT22;64097;52.548;13.406;2023-05-07T11:19:05;19.20;45.20
75517;DHT22;64097;52.548;13.406;2023-05-07T11:21:43;19.10;45.30
75517;DHT22;64097;52.548;13.406;2023-05-07T11:24:10;19.10;45.30
75517;DHT22;64097;52.548;13.406;2023-05-07T11:26:48;19.10;45.30
75517;DHT22;64097;52.548;13.406;2023-05-07T11:29:20;19.10;45.50
75517;DHT22;64097;52.548;13.406;2023-05-07T11:31:50;19.00;45.70
75517;DHT22;64097;52.548;13.406;2023-05-07T11:34:23;19.00;45.40
75517;DHT22;64097;52.548;13.406;2023-05-07T11:36:50;19.00;45.40
75517;DHT22;64097;52.548;13.406;2023-05-07T11:39:31;19.10;45.50
75517;DHT22;64097;52.548;13.406;2023-05-07T11:41:59;19.10;45.50
75517;DHT22;64097;52.548;13.406;2023-05-07T11:44:38;19.10;45.40
75517;DHT22;64097;52.548;13.406;2023-05-07T11:47:04;19.20;45.00
75517;DHT22;64097;52.548;13.406;2023-05-07T11:49:31;19.30;45.30
75517;DHT22;64097;52.548;13.406;2023-05-07T11:51:56;19.30;45.00
75517;DHT22;64097;52.548;13.406;2023-05-07T11:54:22;19.40;44.70
75517;DHT22;64097;52.548;13.406;2023-05-07T11:56:49;19.50;44.80
75517;DHT22;64097;52.548;13.406;2023-05-07T11:59:17;19.50;44.50
75517;DHT22;64097;52.548;13.406;2023-05-07T12:01:45;19.60;44.50
75517;DHT22;64097;52.548;13.406;2023-05-07T12:04:11;19.60;43.80
75517;DHT22;64097;52.548;13.406;2023-05-07T12:06:37;19.70;43.90
75517;DHT22;64097;52.548;13.406;2023-05-07T12:09:04;19.70;44.00
75517;DHT22;64097;52.548;13.406;2023-05-07T12:11:30;19.70;43.80
75517;DHT22;64097;52.548;13.406;2023-05-07T12:13:56;19.70;43.50
75517;DHT22;64097;52.548;13.406;2023-05-07T12:16:21;19.70;43.50
75517;DHT22;64097;52.548;13.406;2023-05-07T12:18:47;19.70;43.60
75517;DHT22;64097;52.548;13.406;2023-05-07T12:21:13;19.70;43.40
75517;DHT22;64097;52.548;13.406;2023-05-07T12:23:40;19.70;43.40
75517;DHT22;64097;52.548;13.406;2023-05-07T12:26:06;19.80;43.50
75517;DHT22;64097;52.548;13.406;2023-05-07T12:28:37;19.80;43.60
75517;DHT22;64097;52.548;13.406;2023-05-07T12:31:04;19.80;43.10
75517;DHT22;64097;52.548;13.406;2023-05-07T12:33:31;19.70;43.20
75517;DHT22;64097;52.548;13.406;2023-05-07T12:35:58;19.70;43.30
75517;DHT22;64097;52.548;13.406;2023-05-07T12:38:36;19.70;43.30
75517;DHT22;64097;52.548;13.406;2023-05-07T12:41:02;19.70;43.30
75517;DHT22;64097;52.548;13.406;2023-05-07T12:43:29;19.70;43.30
75517;DHT22;64097;52.548;13.406;2023-05-07T12:46:05;19.70;43.30
75517;DHT22;64097;52.548;13.406;2023-05-07T12:48:31;19.70;42.90
75517;DHT22;64097;52.548;13.406;2023-05-07T12:50:58;19.70;42.70
75517;DHT22;64097;52.548;13.406;2023-05-07T12:53:26;19.60;42.80
75517;DHT22;64097;52.548;13.406;2023-05-07T12:55:54;19.60;42.90
75517;DHT22;64097;52.548;13.406;2023-05-07T12:58:20;19.60;43.20
75517;DHT22;64097;52.548;13.406;2023-05-07T13:00:50;19.60;43.20
75517;DHT22;64097;52.548;13.406;2023-05-07T13:05:49;19.70;43.30
75517;DHT22;64097;52.548;13.406;2023-05-07T13:08:33;19.70;43.30
75517;DHT22;64097;52.548;13.406;2023-05-07T13:11:00;19.70;43.20
75517;DHT22;64097;52.548;13.406;2023-05-07T13:13:31;19.80;42.80
75517;DHT22;64097;52.548;13.406;2023-05-07T13:15:57;19.80;42.90
75517;DHT22;64097;52.548;13.406;2023-05-07T13:18:24;19.80;42.70
75517;DHT22;64097;52.548;13.406;2023-05-07T13:20:50;19.80;42.80
75517;DHT22;64097;52.548;13.406;2023-05-07T13:23:16;19.80;42.50
75517;DHT22;64097;52.548;13.406;2023-05-07T13:25:42;19.80;42.50
75517;DHT22;64097;52.548;13.406;2023-05-07T13:28:08;19.80;42.70
75517;DHT22;64097;52.548;13.406;2023-05-07T13:30:34;19.80;42.40
75517;DHT22;64097;52.548;13.406;2023-05-07T13:33:00;19.80;42.00
75517;DHT22;64097;52.548;13.406;2023-05-07T13:35:26;19.80;42.30
75517;DHT22;64097;52.548;13.406;2023-05-07T13:37:53;19.80;41.90
75517;DHT22;64097;52.548;13.406;2023-05-07T13:40:21;19.80;41.80
75517;DHT22;64097;52.548;13.406;2023-05-07T13:42:47;19.80;41.60
75517;DHT22;64097;52.548;13.406;2023-05-07T13:45:13;19.80;41.70
75517;DHT22;64097;52.548;13.406;2023-05-07T13:47:40;19.90;41.90
75517;DHT22;64097;52.548;13.406;2023-05-07T13:50:10;19.90;41.70
75517;DHT22;64097;52.548;13.406;2023-05-07T13:52:37;19.90;41.70
75517;DHT22;64097;52.548;13.406;2023-05-07T13:55:03;20.00;41.80
75517;DHT22;64097;52.548;13.406;2023-05-07T13:57:29;20.00;41.70
75517;DHT22;64097;52.548;13.406;2023-05-07T13:59:55;20.00;41.20
